createdAt,value
2016-11-07T00:03:19.535Z,0
2016-11-07T00:08:23.621Z,0
2016-11-07T00:13:28.045Z,0
2016-11-07T00:18:32.130Z,0
2016-11-07T00:23:36.886Z,0
2016-11-07T00:28:41.304Z,0
2016-11-07T00:33:45.393Z,0
2016-11-07T00:38:49.480Z,0
2016-11-07T00:43:53.564Z,0
2016-11-07T00:48:57.656Z,0
2016-11-07T00:54:02.078Z,0
2016-11-07T00:59:06.163Z,0
2016-11-07T01:04:10.586Z,0
2016-11-07T01:09:15.007Z,0
2016-11-07T01:14:19.093Z,0
2016-11-07T01:19:23.179Z,0
2016-11-07T01:24:27.274Z,0
2016-11-07T01:29:31.360Z,0
2016-11-07T01:34:35.447Z,0
2016-11-07T01:39:39.537Z,0
2016-11-07T01:44:43.622Z,0
2016-11-07T01:49:48.385Z,0
2016-11-07T01:54:52.474Z,0
2016-11-07T01:59:56.562Z,0
2016-11-07T02:05:00.983Z,0
2016-11-07T02:10:05.403Z,0
2016-11-07T02:15:09.484Z,0
2016-11-07T02:20:13.565Z,0
2016-11-07T02:25:17.982Z,0
2016-11-07T02:30:22.069Z,0
2016-11-07T02:35:27.162Z,0
2016-11-07T02:40:31.254Z,0
2016-11-07T02:45:35.336Z,0
2016-11-07T02:50:39.420Z,0
2016-11-07T02:55:43.507Z,0
2016-11-07T03:00:47.590Z,0
2016-11-07T03:05:51.676Z,0
2016-11-07T03:10:56.110Z,0
2016-11-07T03:16:00.196Z,0
2016-11-07T03:21:04.954Z,0
2016-11-07T03:26:09.056Z,0
2016-11-07T03:31:13.156Z,0
2016-11-07T03:36:17.598Z,0
2016-11-07T03:41:21.692Z,0
2016-11-07T03:46:25.773Z,0
2016-11-07T03:51:29.868Z,0
2016-11-07T03:56:34.285Z,0
2016-11-07T04:01:38.709Z,0
2016-11-07T04:06:42.798Z,0
2016-11-07T04:11:46.881Z,0
2016-11-07T04:16:50.974Z,0
2016-11-07T04:21:55.396Z,0
2016-11-07T04:26:59.829Z,0
2016-11-07T04:32:03.919Z,0
2016-11-07T04:37:08.672Z,0
2016-11-07T04:42:12.759Z,0
2016-11-07T04:47:17.180Z,0
2016-11-07T04:52:21.614Z,0
2016-11-07T04:57:25.709Z,0
2016-11-07T05:02:29.809Z,0
2016-11-07T05:07:34.238Z,0
2016-11-07T05:12:38.319Z,0
2016-11-07T05:17:42.417Z,0
2016-11-07T05:22:47.180Z,0
2016-11-07T05:27:51.553Z,0
2016-11-07T05:32:55.636Z,0
2016-11-07T05:38:00.397Z,0
2016-11-07T05:43:04.494Z,0
2016-11-07T05:48:08.812Z,0
2016-11-07T05:53:13.581Z,0
2016-11-07T05:58:17.660Z,0
2016-11-07T06:03:22.176Z,0
2016-11-07T06:08:26.279Z,0
2016-11-07T06:13:30.380Z,0
2016-11-07T06:18:34.468Z,0
2016-11-07T06:23:38.901Z,0
2016-11-07T06:28:43.322Z,0
2016-11-07T06:33:47.409Z,0
2016-11-07T06:38:52.181Z,0
2016-11-07T06:43:56.277Z,0
2016-11-07T06:49:00.371Z,0
2016-11-07T06:54:05.127Z,0
2016-11-07T06:59:09.887Z,0
2016-11-07T07:04:13.976Z,0
2016-11-07T07:09:18.081Z,0
2016-11-07T07:14:22.511Z,0
2016-11-07T07:19:26.944Z,0
2016-11-07T07:24:31.030Z,0
2016-11-07T07:29:35.118Z,0
2016-11-07T07:34:39.207Z,1
2016-11-07T07:39:43.294Z,1
2016-11-07T07:44:47.386Z,1
2016-11-07T07:49:51.816Z,1
2016-11-07T07:54:56.242Z,1
2016-11-07T08:00:00.669Z,1
2016-11-07T08:05:05.103Z,1
2016-11-07T08:10:09.528Z,5
2016-11-07T08:15:13.948Z,9
2016-11-07T08:20:18.046Z,7
2016-11-07T08:25:22.140Z,7
2016-11-07T08:30:26.232Z,5
2016-11-07T08:35:30.354Z,5
2016-11-07T08:40:34.996Z,4
2016-11-07T08:45:39.768Z,5
2016-11-07T08:50:43.873Z,10
2016-11-07T08:55:47.977Z,17
2016-11-07T09:00:52.072Z,6
2016-11-07T09:05:56.162Z,4
2016-11-07T09:11:00.925Z,4
2016-11-07T09:16:05.017Z,4
2016-11-07T09:21:09.435Z,3
2016-11-07T09:26:13.525Z,4
2016-11-07T09:31:17.951Z,4
2016-11-07T09:36:22.381Z,4
2016-11-07T09:41:26.472Z,6
2016-11-07T09:46:31.236Z,6
2016-11-07T09:51:35.343Z,8
2016-11-07T09:56:39.437Z,8
2016-11-07T10:01:43.863Z,9
2016-11-07T10:06:47.955Z,8
2016-11-07T10:11:52.055Z,6
2016-11-07T10:16:56.144Z,8
2016-11-07T10:22:00.236Z,7
2016-11-07T10:27:04.330Z,10
2016-11-07T10:32:08.417Z,12
2016-11-07T10:37:12.845Z,11
2016-11-07T10:42:16.930Z,11
2016-11-07T10:47:21.361Z,12
2016-11-07T10:52:25.789Z,13
2016-11-07T10:57:31.225Z,10
2016-11-07T11:02:35.320Z,10
2016-11-07T11:07:39.742Z,15
2016-11-07T11:12:43.834Z,9
2016-11-07T11:17:48.596Z,12
2016-11-07T11:22:52.787Z,14
2016-11-07T11:27:56.877Z,11
2016-11-07T11:33:01.306Z,9
2016-11-07T11:38:05.403Z,8
2016-11-07T11:43:09.829Z,9
2016-11-07T11:48:14.257Z,9
2016-11-07T11:53:18.348Z,8
2016-11-07T11:58:22.439Z,9
2016-11-07T12:03:26.538Z,13
2016-11-07T12:08:31.304Z,12
2016-11-07T12:13:35.406Z,7
2016-11-07T12:18:39.503Z,12
2016-11-07T12:23:43.929Z,14
2016-11-07T12:28:48.031Z,9
2016-11-07T12:33:52.138Z,5
2016-11-07T12:38:56.561Z,3
2016-11-07T12:44:00.661Z,2
2016-11-07T12:49:04.761Z,2
2016-11-07T12:54:09.186Z,2
2016-11-07T12:59:13.614Z,1
2016-11-07T13:04:18.048Z,2
2016-11-07T13:09:22.943Z,2
2016-11-07T13:14:27.038Z,3
2016-11-07T13:19:31.802Z,3
2016-11-07T13:24:36.674Z,4
2016-11-07T13:29:41.497Z,3
2016-11-07T13:34:45.943Z,3
2016-11-07T13:39:50.062Z,3
2016-11-07T13:44:54.486Z,3
2016-11-07T13:49:58.920Z,3
2016-11-07T13:55:03.350Z,3
2016-11-07T14:00:07.449Z,3
2016-11-07T14:05:12.224Z,3
2016-11-07T14:10:16.989Z,2
2016-11-07T14:15:21.082Z,2
2016-11-07T14:20:25.167Z,2
2016-11-07T14:25:29.586Z,2
2016-11-07T14:30:34.344Z,2
2016-11-07T14:35:38.435Z,2
2016-11-07T14:40:43.195Z,1
2016-11-07T14:45:47.275Z,1
2016-11-07T14:50:52.366Z,1
2016-11-07T14:55:56.804Z,1
2016-11-07T15:01:00.900Z,1
2016-11-07T15:06:05.354Z,1
2016-11-07T15:11:09.813Z,0
2016-11-07T15:16:13.914Z,0
2016-11-07T15:21:18.024Z,0
2016-11-07T15:26:22.916Z,0
2016-11-07T15:31:27.005Z,0
2016-11-07T15:36:31.436Z,0
2016-11-07T15:41:35.536Z,0
2016-11-07T15:46:39.621Z,0
2016-11-07T15:51:43.881Z,0
2016-11-07T15:56:48.315Z,0
2016-11-07T16:01:52.742Z,0
2016-11-07T16:06:56.828Z,0
2016-11-07T16:12:00.934Z,0
2016-11-07T16:17:05.025Z,0
2016-11-07T16:22:09.115Z,0
2016-11-07T16:27:13.543Z,0
2016-11-07T16:32:18.304Z,0
2016-11-07T16:37:22.404Z,0
2016-11-07T16:42:26.524Z,0
2016-11-07T16:47:30.654Z,0
2016-11-07T16:52:34.804Z,0
2016-11-07T16:57:39.462Z,0
2016-11-07T17:02:43.552Z,0
2016-11-07T17:07:47.977Z,0
2016-11-07T17:12:52.730Z,0
2016-11-07T17:17:56.826Z,0
2016-11-07T17:23:01.465Z,0
2016-11-07T17:28:05.562Z,0
2016-11-07T17:33:10.343Z,0
2016-11-07T17:38:14.798Z,0
2016-11-07T17:43:18.931Z,0
2016-11-07T17:48:23.050Z,0
2016-11-07T17:53:27.148Z,0
2016-11-07T17:58:31.262Z,0
2016-11-07T18:03:35.408Z,0
2016-11-07T18:08:39.487Z,0
2016-11-07T18:13:43.594Z,0
2016-11-07T18:18:47.721Z,0
2016-11-07T18:23:52.161Z,0
2016-11-07T18:28:56.250Z,0
2016-11-07T18:34:01.019Z,0
2016-11-07T18:39:05.503Z,0
2016-11-07T18:44:10.005Z,0
2016-11-07T18:49:14.458Z,0
2016-11-07T18:54:18.890Z,0
2016-11-07T18:59:23.335Z,0
2016-11-07T19:04:28.448Z,0
2016-11-07T19:09:32.544Z,0
2016-11-07T19:14:36.643Z,0
2016-11-07T19:19:41.447Z,0
2016-11-07T19:24:45.560Z,0
2016-11-07T19:35:23.952Z,0
2016-11-07T19:40:28.067Z,0
2016-11-07T19:45:32.166Z,0
2016-11-07T19:50:36.255Z,0
2016-11-07T19:55:40.688Z,0
2016-11-07T20:00:45.116Z,0
2016-11-07T20:05:49.889Z,0
2016-11-07T20:10:54.675Z,0
2016-11-07T20:15:59.432Z,0
2016-11-07T20:21:03.865Z,0
2016-11-07T20:26:08.288Z,0
2016-11-07T20:31:12.398Z,0
2016-11-07T20:36:16.499Z,0
2016-11-07T20:41:20.931Z,0
2016-11-07T20:46:25.362Z,0
2016-11-07T20:51:29.454Z,0
2016-11-07T20:56:33.742Z,0
2016-11-07T21:01:38.190Z,0
2016-11-07T21:06:42.670Z,0
2016-11-07T21:11:47.360Z,0
2016-11-07T21:16:51.848Z,0
2016-11-07T21:21:56.338Z,0
2016-11-07T21:27:00.486Z,0
2016-11-07T21:32:05.260Z,0
2016-11-07T21:37:09.680Z,0
2016-11-07T21:42:13.784Z,0
2016-11-07T21:47:18.213Z,0
2016-11-07T21:52:22.641Z,0
2016-11-07T21:57:26.725Z,0
2016-11-07T22:02:30.815Z,0
2016-11-07T22:07:35.244Z,0
2016-11-07T22:12:39.335Z,0
2016-11-07T22:17:43.423Z,0
2016-11-07T22:22:47.506Z,0
2016-11-07T22:27:52.266Z,0
2016-11-07T22:32:56.693Z,0
2016-11-07T22:38:01.124Z,0
2016-11-07T22:43:05.892Z,0
2016-11-07T22:48:10.316Z,0
2016-11-07T22:53:14.739Z,0
2016-11-07T22:58:18.830Z,0
2016-11-07T23:03:23.253Z,0
2016-11-07T23:08:27.353Z,0
2016-11-07T23:13:31.444Z,0
2016-11-07T23:18:35.529Z,0
2016-11-07T23:23:39.962Z,0
2016-11-07T23:28:44.054Z,0
2016-11-07T23:33:48.809Z,0
2016-11-07T23:38:52.900Z,0
2016-11-07T23:43:57.331Z,0
2016-11-07T23:49:01.751Z,0
2016-11-07T23:54:05.840Z,0
2016-11-07T23:59:09.925Z,0
